LYBETNCM

Guest
Details From LYBE - Belgrade
To TNCM - St Maarten - Princess Juliana Intl
Flight Number -
Tags Generated
Created
Modified
Stats Distance 4,372 nm / 8,097 km
Max Altitude 0 ft / 0 m
Waypoints 8
Social Downloads 2
Likes 0
Share VATSIM

Download

Looking for another format? Having issues loading an existing format? Contact us
Advertisement - Login to hide

Notes

Generated

Route

LYBE GOLUN GHE01 ARKOX NB LOTEE MNOLO TNCM

ID Type Via Altitude Latitude Longitude Leg Dist Tot Dist Heading (true) Name
O LYBE APT - 0 ft / 0 m 44.82652˚ 20.29097˚ - 0 nm - -
GOLUN FIX - 0 ft / 0 m 45.26472˚ 15.04444˚ 224 nm 224 nm 279° / 275° -
GHE01 FIX - 0 ft / 0 m 45.45254˚ 10.26061˚ 202 nm 426 nm 275° / 271° -
ARKOX FIX - 0 ft / 0 m 45.44000˚ 5.30750˚ 208 nm 634 nm 272° / 268° -
NB NDB - 0 ft / 0 m 45.14750˚ -0.54992˚ 248 nm 883 nm 268° / 264° BORDEAUX NDB
LOTEE FIX - 0 ft / 0 m 44.65876˚ -5.83665˚ 226 nm 1109 nm 264° / 261° -
MNOLO FIX - 0 ft / 0 m 18.34556˚ -62.80211˚ 3236 nm 4346 nm 260° / 228° -
O TNCM APT - 0 ft / 0 m 18.03937˚ -63.11961˚ 25 nm 4372 nm 225° / 225° -

Altitude Profile

Advertisement - Login to hide

Weather


0- 5 10 15 20 25 30 35+ Temperature / ° C

Clouds and Precipitation
Forecast for 2018-05-22 06:00 UTC. Updated 3 hours ago

Ground ~20,000 ft ~40,000 ft Winds

LYBE

Details ICAO LYBE (BEG)
Name Belgrade
Region Serbia and Montenegro
Timezone Europe/Belgrade (UTC+2.0)
Stats Elevation 335 ft / 102 m (AMSL)
Location 44.818429° 20.309211°
Runways 1
Magnetic Variation 4.719° E

METAR

LYBE 220830Z 13014KT 9999 SCT030 23/16 Q1016 NOSIG

Decode

TAF

TAF LYBE 220500Z 2206/2306 14009KT CAVOK TX27/2213Z TN15/2303Z PROB30 TEMPO 2215/2218 VRB20KT 5000 TSRA SCT027CB BKN030

Decode

Departure Runways

ID Width Length Bearing (true) Bearing (mag) Surface Threshold Offset Overrun Length
12 148 ft / 45 m 11,138 ft / 3,395 m 122.00° 117.28° Asphalt 1,000 ft / 305 m 0 ft / 0 m
30 148 ft / 45 m 11,138 ft / 3,395 m 302.03° 297.31° Asphalt 1,312 ft / 400 m 0 ft / 0 m

TNCM

Details ICAO TNCM (SXM)
Name St Maarten - Princess Juliana Intl
Region Caribbean Netherlands, Aruba, Curaçao, Sint Maarten
Timezone Unknown (UTC+0.0)
Stats Elevation 12 ft / 4 m (AMSL)
Location 18.040889° -63.108974°
Runways 1
Magnetic Variation 14.337° W

METAR

TNCM 220800Z 08011KT 050V110 9999 SCT018 26/22 Q1016 A3000

Decode

TAF

TAF TNCM 220540Z 2206/2306 09012KT P6SM VCSH SCT020

Decode

Destination Runways

ID Width Length Bearing (true) Bearing (mag) Surface Threshold Offset Overrun Length
10 148 ft / 45 m 7,464 ft / 2,275 m 81.43° 95.77° Asphalt 0 ft / 0 m 151 ft / 46 m
28 148 ft / 45 m 7,464 ft / 2,275 m 261.44° 275.78° Asphalt 397 ft / 121 m 0 ft / 0 m

Popular Alternatives